sensor_id;sensor_type;location;lat;lon;timestamp;pressure;altitude;pressure_sealevel;temperature;humidity
14273;BME280;7220;49.450;11.052;2022-08-19T00:04:02;97545.69;;;20.32;100.00
14273;BME280;7220;49.450;11.052;2022-08-19T00:08:03;97526.13;;;20.30;100.00
14273;BME280;7220;49.450;11.052;2022-08-19T00:12:04;97527.28;;;20.28;100.00
14273;BME280;7220;49.450;11.052;2022-08-19T00:16:06;97516.97;;;20.23;100.00
14273;BME280;7220;49.450;11.052;2022-08-19T00:20:08;97521.69;;;20.21;100.00
14273;BME280;7220;49.450;11.052;2022-08-19T00:24:13;97512.75;;;20.21;100.00
14273;BME280;7220;49.450;11.052;2022-08-19T00:28:13;97513.44;;;20.23;100.00
14273;BME280;7220;49.450;11.052;2022-08-19T00:32:14;97509.38;;;20.18;100.00
14273;BME280;7220;49.450;11.052;2022-08-19T00:36:14;97507.66;;;20.17;100.00
14273;BME280;7220;49.450;11.052;2022-08-19T00:40:16;97525.88;;;20.15;100.00
14273;BME280;7220;49.450;11.052;2022-08-19T00:44:23;97522.34;;;20.15;100.00
14273;BME280;7220;49.450;11.052;2022-08-19T00:48:24;97525.03;;;20.15;100.00
14273;BME280;7220;49.450;11.052;2022-08-19T00:52:31;97552.00;;;20.15;100.00
14273;BME280;7220;49.450;11.052;2022-08-19T00:56:32;97550.13;;;20.15;100.00
14273;BME280;7220;49.450;11.052;2022-08-19T01:00:34;97540.22;;;20.16;100.00
14273;BME280;7220;49.450;11.052;2022-08-19T01:04:38;97533.94;;;20.15;100.00
14273;BME280;7220;49.450;11.052;2022-08-19T01:08:38;97535.66;;;20.16;100.00
14273;BME280;7220;49.450;11.052;2022-08-19T01:12:39;97543.59;;;20.18;100.00
14273;BME280;7220;49.450;11.052;2022-08-19T01:16:40;97539.03;;;20.18;100.00
14273;BME280;7220;49.450;11.052;2022-08-19T01:20:42;97539.34;;;20.15;100.00
14273;BME280;7220;49.450;11.052;2022-08-19T01:24:42;97538.53;;;20.15;100.00
14273;BME280;7220;49.450;11.052;2022-08-19T01:28:45;97546.78;;;20.13;100.00
14273;BME280;7220;49.450;11.052;2022-08-19T11:42:57;97712.94;;;21.30;97.85
14273;BME280;7220;49.450;11.052;2022-08-19T11:46:58;97717.75;;;21.52;95.77
14273;BME280;7220;49.450;11.052;2022-08-19T11:51:03;97721.69;;;21.58;94.38
14273;BME280;7220;49.450;11.052;2022-08-19T11:55:06;97717.44;;;21.64;94.68
14273;BME280;7220;49.450;11.052;2022-08-19T13:10:07;97739.28;;;19.66;100.00
14273;BME280;7220;49.450;11.052;2022-08-19T13:14:09;97734.53;;;19.60;100.00
14273;BME280;7220;49.450;11.052;2022-08-19T13:18:11;97736.75;;;19.65;100.00
14273;BME280;7220;49.450;11.052;2022-08-19T13:22:12;97730.06;;;19.69;100.00
14273;BME280;7220;49.450;11.052;2022-08-19T13:26:14;97731.31;;;19.75;100.00
14273;BME280;7220;49.450;11.052;2022-08-19T13:30:15;97736.69;;;19.75;100.00
14273;BME280;7220;49.450;11.052;2022-08-19T13:34:35;97729.94;;;19.70;100.00
14273;BME280;7220;49.450;11.052;2022-08-19T13:38:36;97732.47;;;19.72;100.00
14273;BME280;7220;49.450;11.052;2022-08-19T13:42:38;97741.69;;;19.69;100.00
14273;BME280;7220;49.450;11.052;2022-08-19T13:46:39;97746.38;;;19.67;100.00
14273;BME280;7220;49.450;11.052;2022-08-19T13:50:42;97743.69;;;19.67;100.00
14273;BME280;7220;49.450;11.052;2022-08-19T13:54:43;97733.91;;;19.66;100.00
14273;BME280;7220;49.450;11.052;2022-08-19T13:58:43;97744.53;;;19.68;100.00
14273;BME280;7220;49.450;11.052;2022-08-19T14:02:45;97745.06;;;19.71;100.00
14273;BME280;7220;49.450;11.052;2022-08-19T14:06:46;97744.06;;;19.73;100.00
14273;BME280;7220;49.450;11.052;2022-08-19T14:10:46;97755.84;;;19.71;100.00
14273;BME280;7220;49.450;11.052;2022-08-19T14:14:48;97753.47;;;19.68;100.00
14273;BME280;7220;49.450;11.052;2022-08-19T14:18:49;97754.63;;;19.66;100.00
14273;BME280;7220;49.450;11.052;2022-08-19T14:22:49;97759.06;;;19.57;100.00
14273;BME280;7220;49.450;11.052;2022-08-19T14:26:50;97753.91;;;19.46;100.00
14273;BME280;7220;49.450;11.052;2022-08-19T14:30:50;97759.91;;;19.30;100.00
14273;BME280;7220;49.450;11.052;2022-08-19T14:34:53;97762.94;;;19.17;100.00
14273;BME280;7220;49.450;11.052;2022-08-19T14:38:54;97767.38;;;19.08;100.00
14273;BME280;7220;49.450;11.052;2022-08-19T14:42:56;97768.25;;;18.99;100.00
14273;BME280;7220;49.450;11.052;2022-08-19T14:46:59;97767.28;;;18.90;100.00
14273;BME280;7220;49.450;11.052;2022-08-19T14:50:59;97762.59;;;18.82;100.00
14273;BME280;7220;49.450;11.052;2022-08-19T14:55:00;97753.25;;;18.76;100.00
14273;BME280;7220;49.450;11.052;2022-08-19T14:59:01;97755.81;;;18.68;100.00
14273;BME280;7220;49.450;11.052;2022-08-19T15:03:01;97751.88;;;18.63;100.00
14273;BME280;7220;49.450;11.052;2022-08-19T15:07:02;97760.41;;;18.58;100.00
14273;BME280;7220;49.450;11.052;2022-08-19T15:11:12;97761.50;;;18.55;100.00
14273;BME280;7220;49.450;11.052;2022-08-19T15:15:15;97768.75;;;18.55;100.00
14273;BME280;7220;49.450;11.052;2022-08-19T15:19:17;97767.91;;;18.54;100.00
14273;BME280;7220;49.450;11.052;2022-08-19T15:23:18;97766.75;;;18.57;100.00
14273;BME280;7220;49.450;11.052;2022-08-19T15:27:19;97780.91;;;18.59;100.00
14273;BME280;7220;49.450;11.052;2022-08-19T15:31:20;97783.59;;;18.59;100.00
14273;BME280;7220;49.450;11.052;2022-08-19T15:35:22;97786.19;;;18.51;100.00
14273;BME280;7220;49.450;11.052;2022-08-19T15:39:23;97788.72;;;18.42;100.00
14273;BME280;7220;49.450;11.052;2022-08-19T15:43:23;97793.53;;;18.39;100.00
14273;BME280;7220;49.450;11.052;2022-08-19T15:47:24;97797.19;;;18.28;100.00
14273;BME280;7220;49.450;11.052;2022-08-19T15:51:26;97798.91;;;18.19;100.00
14273;BME280;7220;49.450;11.052;2022-08-19T15:55:31;97802.28;;;18.11;100.00
14273;BME280;7220;49.450;11.052;2022-08-19T15:59:33;97801.44;;;18.01;100.00
14273;BME280;7220;49.450;11.052;2022-08-19T16:03:53;97806.19;;;17.88;100.00
14273;BME280;7220;49.450;11.052;2022-08-19T16:08:12;97814.66;;;17.83;100.00
14273;BME280;7220;49.450;11.052;2022-08-19T16:12:14;97817.78;;;17.78;100.00
14273;BME280;7220;49.450;11.052;2022-08-19T16:16:18;97817.91;;;17.77;100.00
14273;BME280;7220;49.450;11.052;2022-08-19T16:20:18;97819.75;;;17.76;100.00
14273;BME280;7220;49.450;11.052;2022-08-19T16:24:24;97825.69;;;17.70;100.00
14273;BME280;7220;49.450;11.052;2022-08-19T16:28:24;97831.31;;;17.67;100.00
14273;BME280;7220;49.450;11.052;2022-08-19T16:32:25;97827.91;;;17.65;100.00
14273;BME280;7220;49.450;11.052;2022-08-19T16:36:25;97822.09;;;17.60;100.00
14273;BME280;7220;49.450;11.052;2022-08-19T16:40:27;97832.38;;;17.55;100.00
14273;BME280;7220;49.450;11.052;2022-08-19T16:44:28;97825.84;;;17.47;100.00
14273;BME280;7220;49.450;11.052;2022-08-19T16:48:29;97827.38;;;17.40;100.00
14273;BME280;7220;49.450;11.052;2022-08-19T16:52:30;97836.56;;;17.38;100.00
14273;BME280;7220;49.450;11.052;2022-08-19T16:56:30;97844.78;;;17.36;100.00
14273;BME280;7220;49.450;11.052;2022-08-19T17:00:31;97843.31;;;17.32;100.00
14273;BME280;7220;49.450;11.052;2022-08-19T17:04:31;97841.03;;;17.27;100.00
14273;BME280;7220;49.450;11.052;2022-08-19T17:08:32;97851.47;;;17.21;100.00
14273;BME280;7220;49.450;11.052;2022-08-19T17:12:33;97852.84;;;17.15;100.00
14273;BME280;7220;49.450;11.052;2022-08-19T17:16:35;97854.22;;;17.09;100.00
14273;BME280;7220;49.450;11.052;2022-08-19T17:20:35;97852.63;;;16.97;100.00
14273;BME280;7220;49.450;11.052;2022-08-19T17:24:36;97863.38;;;16.85;100.00
14273;BME280;7220;49.450;11.052;2022-08-19T17:28:37;97863.91;;;16.79;100.00
14273;BME280;7220;49.450;11.052;2022-08-19T17:32:37;97858.91;;;16.75;100.00
14273;BME280;7220;49.450;11.052;2022-08-19T17:36:37;97856.63;;;16.70;100.00
14273;BME280;7220;49.450;11.052;2022-08-19T17:40:38;97866.63;;;16.68;100.00
14273;BME280;7220;49.450;11.052;2022-08-19T17:44:41;97870.19;;;16.68;100.00
14273;BME280;7220;49.450;11.052;2022-08-19T17:48:41;97867.59;;;16.67;100.00
14273;BME280;7220;49.450;11.052;2022-08-19T17:52:42;97876.06;;;16.62;100.00
14273;BME280;7220;49.450;11.052;2022-08-19T17:56:43;97879.72;;;16.61;100.00
14273;BME280;7220;49.450;11.052;2022-08-19T18:00:45;97878.75;;;16.62;100.00
14273;BME280;7220;49.450;11.052;2022-08-19T18:04:45;97878.81;;;16.72;100.00
14273;BME280;7220;49.450;11.052;2022-08-19T18:08:46;97888.38;;;16.65;100.00
14273;BME280;7220;49.450;11.052;2022-08-19T18:12:49;97883.25;;;16.62;100.00
14273;BME280;7220;49.450;11.052;2022-08-19T18:16:49;97881.94;;;16.77;100.00
14273;BME280;7220;49.450;11.052;2022-08-19T18:20:51;97886.16;;;16.59;100.00
14273;BME280;7220;49.450;11.052;2022-08-19T18:24:51;97885.47;;;16.56;100.00
14273;BME280;7220;49.450;11.052;2022-08-19T18:28:51;97892.78;;;16.54;100.00
14273;BME280;7220;49.450;11.052;2022-08-19T18:32:53;97892.91;;;16.53;100.00
14273;BME280;7220;49.450;11.052;2022-08-19T18:36:53;97893.31;;;16.48;100.00
14273;BME280;7220;49.450;11.052;2022-08-19T18:40:54;97902.56;;;16.44;100.00
14273;BME280;7220;49.450;11.052;2022-08-19T18:45:13;97908.44;;;16.38;100.00
14273;BME280;7220;49.450;11.052;2022-08-19T18:49:32;97918.56;;;16.34;100.00
14273;BME280;7220;49.450;11.052;2022-08-19T18:53:35;97903.31;;;16.35;100.00
14273;BME280;7220;49.450;11.052;2022-08-19T18:57:37;97897.25;;;16.33;100.00
14273;BME280;7220;49.450;11.052;2022-08-19T19:01:40;97914.03;;;16.35;100.00
14273;BME280;7220;49.450;11.052;2022-08-19T19:05:46;97914.91;;;16.35;100.00
14273;BME280;7220;49.450;11.052;2022-08-19T19:09:48;97910.53;;;16.34;100.00
14273;BME280;7220;49.450;11.052;2022-08-19T19:13:50;97914.53;;;16.40;100.00
14273;BME280;7220;49.450;11.052;2022-08-19T19:17:50;97916.72;;;16.35;100.00
14273;BME280;7220;49.450;11.052;2022-08-19T19:21:51;97923.78;;;16.36;100.00
14273;BME280;7220;49.450;11.052;2022-08-19T19:25:52;97930.88;;;16.37;100.00
14273;BME280;7220;49.450;11.052;2022-08-19T19:29:52;97941.00;;;16.33;100.00
14273;BME280;7220;49.450;11.052;2022-08-19T19:33:54;97939.41;;;16.31;100.00
14273;BME280;7220;49.450;11.052;2022-08-19T19:37:55;97944.91;;;16.29;100.00
14273;BME280;7220;49.450;11.052;2022-08-19T19:41:56;97948.69;;;16.27;100.00
14273;BME280;7220;49.450;11.052;2022-08-19T19:45:56;97951.25;;;16.28;100.00
14273;BME280;7220;49.450;11.052;2022-08-19T19:49:56;97951.84;;;16.32;100.00
14273;BME280;7220;49.450;11.052;2022-08-19T19:53:57;97953.78;;;16.41;100.00
14273;BME280;7220;49.450;11.052;2022-08-19T19:57:57;97949.41;;;16.40;100.00
14273;BME280;7220;49.450;11.052;2022-08-19T20:01:58;97957.91;;;16.45;100.00
14273;BME280;7220;49.450;11.052;2022-08-19T20:06:00;97972.19;;;16.46;100.00
14273;BME280;7220;49.450;11.052;2022-08-19T20:10:00;97973.78;;;16.48;100.00
14273;BME280;7220;49.450;11.052;2022-08-19T20:14:12;97973.63;;;16.50;100.00
14273;BME280;7220;49.450;11.052;2022-08-19T20:18:14;97984.22;;;16.51;100.00
14273;BME280;7220;49.450;11.052;2022-08-19T20:22:15;97981.69;;;16.50;100.00
14273;BME280;7220;49.450;11.052;2022-08-19T20:26:16;97983.63;;;16.48;100.00
14273;BME280;7220;49.450;11.052;2022-08-19T20:30:20;97980.09;;;16.47;100.00
14273;BME280;7220;49.450;11.052;2022-08-19T20:34:20;97979.38;;;16.45;100.00
14273;BME280;7220;49.450;11.052;2022-08-19T20:38:21;97983.75;;;16.46;100.00
14273;BME280;7220;49.450;11.052;2022-08-19T20:42:22;97988.16;;;16.47;100.00
14273;BME280;7220;49.450;11.052;2022-08-19T20:46:23;97983.91;;;16.45;100.00
14273;BME280;7220;49.450;11.052;2022-08-19T20:50:23;97980.59;;;16.41;100.00
14273;BME280;7220;49.450;11.052;2022-08-19T20:54:25;97994.03;;;16.41;100.00
14273;BME280;7220;49.450;11.052;2022-08-19T20:58:26;97984.13;;;16.42;100.00
14273;BME280;7220;49.450;11.052;2022-08-19T21:02:26;97987.06;;;16.38;100.00
14273;BME280;7220;49.450;11.052;2022-08-19T21:06:27;97985.72;;;16.44;100.00
14273;BME280;7220;49.450;11.052;2022-08-19T21:10:27;97982.56;;;16.39;100.00
14273;BME280;7220;49.450;11.052;2022-08-19T21:14:27;97993.16;;;16.40;100.00
14273;BME280;7220;49.450;11.052;2022-08-19T21:18:28;97994.03;;;16.41;100.00
14273;BME280;7220;49.450;11.052;2022-08-19T21:22:28;97994.84;;;16.42;100.00
14273;BME280;7220;49.450;11.052;2022-08-19T21:26:28;97995.72;;;16.42;100.00
14273;BME280;7220;49.450;11.052;2022-08-19T21:30:29;97989.97;;;16.47;100.00
14273;BME280;7220;49.450;11.052;2022-08-19T21:34:29;97999.13;;;16.44;100.00
14273;BME280;7220;49.450;11.052;2022-08-19T21:38:30;97995.44;;;16.56;100.00
14273;BME280;7220;49.450;11.052;2022-08-19T21:42:31;97990.31;;;16.53;100.00
14273;BME280;7220;49.450;11.052;2022-08-19T21:46:31;97983.38;;;16.62;100.00
14273;BME280;7220;49.450;11.052;2022-08-19T21:50:32;97999.41;;;16.74;100.00
14273;BME280;7220;49.450;11.052;2022-08-19T21:54:33;97991.50;;;16.72;100.00
14273;BME280;7220;49.450;11.052;2022-08-19T21:58:34;98003.81;;;16.75;100.00
14273;BME280;7220;49.450;11.052;2022-08-19T22:02:36;98005.66;;;16.74;100.00
14273;BME280;7220;49.450;11.052;2022-08-19T22:06:37;98001.50;;;16.81;100.00
14273;BME280;7220;49.450;11.052;2022-08-19T22:10:37;98008.72;;;16.69;100.00
14273;BME280;7220;49.450;11.052;2022-08-19T22:14:38;98006.88;;;16.70;100.00
14273;BME280;7220;49.450;11.052;2022-08-19T22:18:38;97998.00;;;16.69;100.00
14273;BME280;7220;49.450;11.052;2022-08-19T22:22:47;98014.09;;;16.69;100.00
14273;BME280;7220;49.450;11.052;2022-08-19T22:26:48;98010.16;;;16.74;100.00
14273;BME280;7220;49.450;11.052;2022-08-19T22:30:48;98012.84;;;16.74;100.00
14273;BME280;7220;49.450;11.052;2022-08-19T22:34:49;98010.50;;;16.80;100.00
14273;BME280;7220;49.450;11.052;2022-08-19T22:38:49;98010.50;;;16.80;100.00
14273;BME280;7220;49.450;11.052;2022-08-19T22:43:19;98012.19;;;16.93;100.00
14273;BME280;7220;49.450;11.052;2022-08-19T22:47:20;98007.69;;;16.82;100.00
14273;BME280;7220;49.450;11.052;2022-08-19T22:51:20;98007.56;;;16.83;100.00
14273;BME280;7220;49.450;11.052;2022-08-19T22:55:39;97998.53;;;16.84;100.00
14273;BME280;7220;49.450;11.052;2022-08-19T22:59:39;97998.44;;;16.86;100.00
14273;BME280;7220;49.450;11.052;2022-08-19T23:03:40;98005.34;;;17.00;100.00
14273;BME280;7220;49.450;11.052;2022-08-19T23:07:41;98010.13;;;16.96;100.00
14273;BME280;7220;49.450;11.052;2022-08-19T23:11:41;97997.91;;;17.25;100.00
14273;BME280;7220;49.450;11.052;2022-08-19T23:15:43;97991.28;;;17.08;100.00
14273;BME280;7220;49.450;11.052;2022-08-19T23:19:43;97979.56;;;17.09;100.00
14273;BME280;7220;49.450;11.052;2022-08-19T23:23:44;97984.75;;;17.43;100.00
14273;BME280;7220;49.450;11.052;2022-08-19T23:27:44;97973.03;;;17.44;100.00
14273;BME280;7220;49.450;11.052;2022-08-19T23:32:03;97964.16;;;17.11;100.00
14273;BME280;7220;49.450;11.052;2022-08-19T23:36:14;97962.63;;;17.29;100.00
14273;BME280;7220;49.450;11.052;2022-08-19T23:40:15;97963.47;;;17.30;100.00
14273;BME280;7220;49.450;11.052;2022-08-19T23:44:16;97960.75;;;17.51;100.00
14273;BME280;7220;49.450;11.052;2022-08-19T23:48:17;97974.78;;;17.55;100.00
14273;BME280;7220;49.450;11.052;2022-08-19T23:52:18;98001.66;;;17.55;100.00
14273;BME280;7220;49.450;11.052;2022-08-19T23:56:18;97997.19;;;17.44;100.00
